sensor_id;sensor_type;location;lat;lon;timestamp;temperature;humidity
65072;DHT22;51663;52.310;17.016;2022-12-10T00:01:06;21.60;29.40
65072;DHT22;51663;52.310;17.016;2022-12-10T00:04:10;21.50;29.60
65072;DHT22;51663;52.310;17.016;2022-12-10T00:07:12;20.80;30.20
65072;DHT22;51663;52.310;17.016;2022-12-10T00:10:14;20.40;31.10
65072;DHT22;51663;52.310;17.016;2022-12-10T00:13:17;19.90;32.00
65072;DHT22;51663;52.310;17.016;2022-12-10T00:16:21;20.20;31.50
65072;DHT22;51663;52.310;17.016;2022-12-10T00:19:23;21.20;30.30
65072;DHT22;51663;52.310;17.016;2022-12-10T00:22:25;21.10;30.00
65072;DHT22;51663;52.310;17.016;2022-12-10T00:25:27;20.50;31.00
65072;DHT22;51663;52.310;17.016;2022-12-10T00:28:30;20.90;30.80
65072;DHT22;51663;52.310;17.016;2022-12-10T00:31:35;20.10;31.70
65072;DHT22;51663;52.310;17.016;2022-12-10T00:34:38;20.50;31.90
65072;DHT22;51663;52.310;17.016;2022-12-10T00:37:40;19.90;32.40
65072;DHT22;51663;52.310;17.016;2022-12-10T00:40:42;19.70;31.90
65072;DHT22;51663;52.310;17.016;2022-12-10T00:43:45;20.70;31.90
65072;DHT22;51663;52.310;17.016;2022-12-10T00:46:47;20.80;30.90
65072;DHT22;51663;52.310;17.016;2022-12-10T00:49:49;20.60;30.80
65072;DHT22;51663;52.310;17.016;2022-12-10T00:52:51;20.20;32.10
65072;DHT22;51663;52.310;17.016;2022-12-10T00:55:53;20.20;32.00
65072;DHT22;51663;52.310;17.016;2022-12-10T00:58:56;21.20;30.50
65072;DHT22;51663;52.310;17.016;2022-12-10T01:01:58;21.40;29.90
65072;DHT22;51663;52.310;17.016;2022-12-10T01:05:00;20.80;30.00
65072;DHT22;51663;52.310;17.016;2022-12-10T01:08:02;22.00;29.20
65072;DHT22;51663;52.310;17.016;2022-12-10T01:11:05;22.20;28.60
65072;DHT22;51663;52.310;17.016;2022-12-10T01:14:10;20.90;29.40
65072;DHT22;51663;52.310;17.016;2022-12-10T01:17:12;20.30;30.40
65072;DHT22;51663;52.310;17.016;2022-12-10T01:20:14;19.60;32.20
65072;DHT22;51663;52.310;17.016;2022-12-10T01:23:16;20.20;31.40
65072;DHT22;51663;52.310;17.016;2022-12-10T01:26:24;20.80;30.60
65072;DHT22;51663;52.310;17.016;2022-12-10T01:29:26;19.60;31.30
65072;DHT22;51663;52.310;17.016;2022-12-10T01:32:29;20.10;31.20
65072;DHT22;51663;52.310;17.016;2022-12-10T01:35:31;19.80;31.30
65072;DHT22;51663;52.310;17.016;2022-12-10T01:38:37;21.10;29.50
65072;DHT22;51663;52.310;17.016;2022-12-10T01:41:42;21.20;29.20
65072;DHT22;51663;52.310;17.016;2022-12-10T01:47:47;20.00;30.50
65072;DHT22;51663;52.310;17.016;2022-12-10T01:50:49;20.60;30.30
65072;DHT22;51663;52.310;17.016;2022-12-10T01:53:52;20.10;29.90
65072;DHT22;51663;52.310;17.016;2022-12-10T01:56:59;19.50;30.60
65072;DHT22;51663;52.310;17.016;2022-12-10T02:00:04;20.80;29.40
65072;DHT22;51663;52.310;17.016;2022-12-10T02:03:14;21.10;28.70
65072;DHT22;51663;52.310;17.016;2022-12-10T02:09:50;20.10;29.50
65072;DHT22;51663;52.310;17.016;2022-12-10T02:13:01;20.50;29.20
65072;DHT22;51663;52.310;17.016;2022-12-10T02:16:18;21.40;28.00
65072;DHT22;51663;52.310;17.016;2022-12-10T02:19:32;22.00;27.10
65072;DHT22;51663;52.310;17.016;2022-12-10T02:23:02;21.70;27.20
65072;DHT22;51663;52.310;17.016;2022-12-10T02:29:19;20.40;28.60
65072;DHT22;51663;52.310;17.016;2022-12-10T02:32:33;20.00;29.10
65072;DHT22;51663;52.310;17.016;2022-12-10T02:35:37;20.70;28.40
65072;DHT22;51663;52.310;17.016;2022-12-10T02:38:41;20.70;28.00
65072;DHT22;51663;52.310;17.016;2022-12-10T02:41:49;20.30;28.50
65072;DHT22;51663;52.310;17.016;2022-12-10T02:44:53;20.70;28.40
65072;DHT22;51663;52.310;17.016;2022-12-10T02:47:59;21.40;27.70
65072;DHT22;51663;52.310;17.016;2022-12-10T02:51:02;21.30;27.70
65072;DHT22;51663;52.310;17.016;2022-12-10T02:54:31;20.80;27.70
65072;DHT22;51663;52.310;17.016;2022-12-10T03:01:01;21.80;26.60
65072;DHT22;51663;52.310;17.016;2022-12-10T03:04:15;21.80;26.50
65072;DHT22;51663;52.310;17.016;2022-12-10T03:07:24;21.60;27.10
65072;DHT22;51663;52.310;17.016;2022-12-10T03:10:45;22.10;26.40
65072;DHT22;51663;52.310;17.016;2022-12-10T03:14:05;21.00;27.30
65072;DHT22;51663;52.310;17.016;2022-12-10T03:17:09;22.00;27.00
65072;DHT22;51663;52.310;17.016;2022-12-10T03:20:13;21.30;27.40
65072;DHT22;51663;52.310;17.016;2022-12-10T03:23:17;21.90;26.80
65072;DHT22;51663;52.310;17.016;2022-12-10T03:26:21;21.50;26.80
65072;DHT22;51663;52.310;17.016;2022-12-10T03:29:31;21.80;27.40
65072;DHT22;51663;52.310;17.016;2022-12-10T03:32:35;21.70;26.80
65072;DHT22;51663;52.310;17.016;2022-12-10T03:35:39;21.60;26.80
65072;DHT22;51663;52.310;17.016;2022-12-10T03:38:42;21.00;27.60
65072;DHT22;51663;52.310;17.016;2022-12-10T03:41:44;20.00;28.70
65072;DHT22;51663;52.310;17.016;2022-12-10T03:44:49;21.50;27.40
65072;DHT22;51663;52.310;17.016;2022-12-10T03:47:53;20.60;28.10
65072;DHT22;51663;52.310;17.016;2022-12-10T03:50:55;19.30;29.00
65072;DHT22;51663;52.310;17.016;2022-12-10T03:53:57;18.80;30.30
65072;DHT22;51663;52.310;17.016;2022-12-10T03:56:59;19.70;29.10
65072;DHT22;51663;52.310;17.016;2022-12-10T04:00:04;19.90;28.60
65072;DHT22;51663;52.310;17.016;2022-12-10T04:03:07;20.30;28.60
65072;DHT22;51663;52.310;17.016;2022-12-10T04:06:14;20.60;28.20
65072;DHT22;51663;52.310;17.016;2022-12-10T04:09:16;20.90;28.00
65072;DHT22;51663;52.310;17.016;2022-12-10T04:12:18;20.30;28.20
65072;DHT22;51663;52.310;17.016;2022-12-10T04:15:20;19.60;28.80
65072;DHT22;51663;52.310;17.016;2022-12-10T04:18:41;20.80;28.00
65072;DHT22;51663;52.310;17.016;2022-12-10T04:21:44;19.90;28.70
65072;DHT22;51663;52.310;17.016;2022-12-10T04:25:06;19.70;28.90
65072;DHT22;51663;52.310;17.016;2022-12-10T04:28:27;20.80;28.00
65072;DHT22;51663;52.310;17.016;2022-12-10T04:31:29;20.20;28.10
65072;DHT22;51663;52.310;17.016;2022-12-10T04:34:31;18.50;29.60
65072;DHT22;51663;52.310;17.016;2022-12-10T04:37:33;18.20;30.60
65072;DHT22;51663;52.310;17.016;2022-12-10T04:40:35;17.90;31.40
65072;DHT22;51663;52.310;17.016;2022-12-10T04:43:37;19.00;30.00
65072;DHT22;51663;52.310;17.016;2022-12-10T04:46:39;19.60;29.10
65072;DHT22;51663;52.310;17.016;2022-12-10T04:49:42;19.70;28.80
65072;DHT22;51663;52.310;17.016;2022-12-10T04:52:44;19.30;29.20
65072;DHT22;51663;52.310;17.016;2022-12-10T04:55:46;19.10;29.50
65072;DHT22;51663;52.310;17.016;2022-12-10T04:58:49;19.60;29.10
65072;DHT22;51663;52.310;17.016;2022-12-10T05:01:51;21.50;27.70
65072;DHT22;51663;52.310;17.016;2022-12-10T05:04:53;22.00;26.50
65072;DHT22;51663;52.310;17.016;2022-12-10T05:07:55;23.50;24.90
65072;DHT22;51663;52.310;17.016;2022-12-10T05:11:15;23.50;24.80
65072;DHT22;51663;52.310;17.016;2022-12-10T05:14:17;24.00;24.10
65072;DHT22;51663;52.310;17.016;2022-12-10T05:17:22;24.00;24.00
65072;DHT22;51663;52.310;17.016;2022-12-10T05:20:25;24.10;23.90
65072;DHT22;51663;52.310;17.016;2022-12-10T05:23:27;24.80;23.50
65072;DHT22;51663;52.310;17.016;2022-12-10T05:26:32;24.70;23.10
65072;DHT22;51663;52.310;17.016;2022-12-10T05:29:34;23.60;24.00
65072;DHT22;51663;52.310;17.016;2022-12-10T05:32:36;23.30;24.80
65072;DHT22;51663;52.310;17.016;2022-12-10T05:35:38;24.40;23.90
65072;DHT22;51663;52.310;17.016;2022-12-10T05:38:41;24.00;24.10
65072;DHT22;51663;52.310;17.016;2022-12-10T05:41:43;23.80;24.10
65072;DHT22;51663;52.310;17.016;2022-12-10T05:44:47;23.50;24.50
65072;DHT22;51663;52.310;17.016;2022-12-10T05:47:50;23.80;24.40
65072;DHT22;51663;52.310;17.016;2022-12-10T05:50:52;24.00;24.00
65072;DHT22;51663;52.310;17.016;2022-12-10T05:53:55;24.40;23.70
65072;DHT22;51663;52.310;17.016;2022-12-10T05:56:58;24.70;23.50
65072;DHT22;51663;52.310;17.016;2022-12-10T05:59:59;25.10;23.20
65072;DHT22;51663;52.310;17.016;2022-12-10T06:03:02;25.40;23.60
65072;DHT22;51663;52.310;17.016;2022-12-10T06:06:05;25.60;22.80
65072;DHT22;51663;52.310;17.016;2022-12-10T06:09:12;25.60;22.70
65072;DHT22;51663;52.310;17.016;2022-12-10T06:12:14;25.90;22.50
65072;DHT22;51663;52.310;17.016;2022-12-10T06:15:16;25.40;22.60
65072;DHT22;51663;52.310;17.016;2022-12-10T06:18:18;25.40;22.50
65072;DHT22;51663;52.310;17.016;2022-12-10T06:21:21;25.40;22.50
65072;DHT22;51663;52.310;17.016;2022-12-10T06:24:23;25.70;22.70
65072;DHT22;51663;52.310;17.016;2022-12-10T06:27:25;25.20;22.40
65072;DHT22;51663;52.310;17.016;2022-12-10T06:30:27;25.20;22.70
65072;DHT22;51663;52.310;17.016;2022-12-10T06:33:29;25.50;22.60
65072;DHT22;51663;52.310;17.016;2022-12-10T06:36:31;25.40;22.50
65072;DHT22;51663;52.310;17.016;2022-12-10T06:39:34;25.20;22.60
65072;DHT22;51663;52.310;17.016;2022-12-10T06:42:36;25.40;22.70
65072;DHT22;51663;52.310;17.016;2022-12-10T06:45:39;25.20;22.70
65072;DHT22;51663;52.310;17.016;2022-12-10T06:48:42;24.90;22.90
65072;DHT22;51663;52.310;17.016;2022-12-10T06:51:44;25.00;22.90
65072;DHT22;51663;52.310;17.016;2022-12-10T06:54:46;25.20;23.30
65072;DHT22;51663;52.310;17.016;2022-12-10T06:57:52;25.30;22.70
65072;DHT22;51663;52.310;17.016;2022-12-10T07:01:01;25.20;23.00
65072;DHT22;51663;52.310;17.016;2022-12-10T07:04:04;25.20;22.70
65072;DHT22;51663;52.310;17.016;2022-12-10T07:07:06;24.80;22.90
65072;DHT22;51663;52.310;17.016;2022-12-10T07:10:11;25.10;23.00
65072;DHT22;51663;52.310;17.016;2022-12-10T07:13:13;25.10;22.70
65072;DHT22;51663;52.310;17.016;2022-12-10T07:16:21;25.40;22.90
65072;DHT22;51663;52.310;17.016;2022-12-10T07:19:23;25.50;22.70
65072;DHT22;51663;52.310;17.016;2022-12-10T07:22:26;25.80;22.90
65072;DHT22;51663;52.310;17.016;2022-12-10T07:25:28;25.90;22.60
65072;DHT22;51663;52.310;17.016;2022-12-10T07:28:33;26.10;22.30
65072;DHT22;51663;52.310;17.016;2022-12-10T07:31:37;25.70;22.40
65072;DHT22;51663;52.310;17.016;2022-12-10T07:34:40;25.80;23.30
65072;DHT22;51663;52.310;17.016;2022-12-10T07:37:42;25.70;22.60
65072;DHT22;51663;52.310;17.016;2022-12-10T07:40:44;25.70;22.60
65072;DHT22;51663;52.310;17.016;2022-12-10T07:43:46;26.10;22.30
65072;DHT22;51663;52.310;17.016;2022-12-10T07:46:49;25.50;22.70
65072;DHT22;51663;52.310;17.016;2022-12-10T07:49:52;25.30;23.00
65072;DHT22;51663;52.310;17.016;2022-12-10T07:52:54;26.00;22.70
65072;DHT22;51663;52.310;17.016;2022-12-10T07:55:57;25.60;22.80
65072;DHT22;51663;52.310;17.016;2022-12-10T07:58:59;25.80;22.70
65072;DHT22;51663;52.310;17.016;2022-12-10T08:02:01;26.00;22.30
65072;DHT22;51663;52.310;17.016;2022-12-10T08:05:10;26.30;22.30
65072;DHT22;51663;52.310;17.016;2022-12-10T08:08:12;26.30;22.30
65072;DHT22;51663;52.310;17.016;2022-12-10T08:11:17;25.90;22.40
65072;DHT22;51663;52.310;17.016;2022-12-10T08:14:19;25.20;23.10
65072;DHT22;51663;52.310;17.016;2022-12-10T08:17:21;25.60;23.00
65072;DHT22;51663;52.310;17.016;2022-12-10T08:20:24;25.20;23.00
65072;DHT22;51663;52.310;17.016;2022-12-10T08:23:26;25.80;22.90
65072;DHT22;51663;52.310;17.016;2022-12-10T08:26:31;25.40;22.90
65072;DHT22;51663;52.310;17.016;2022-12-10T08:29:34;25.10;23.20
65072;DHT22;51663;52.310;17.016;2022-12-10T08:32:36;24.50;23.90
65072;DHT22;51663;52.310;17.016;2022-12-10T08:35:38;24.10;24.40
65072;DHT22;51663;52.310;17.016;2022-12-10T08:38:41;23.70;24.70
65072;DHT22;51663;52.310;17.016;2022-12-10T08:41:45;23.10;25.30
65072;DHT22;51663;52.310;17.016;2022-12-10T08:44:47;24.30;25.00
65072;DHT22;51663;52.310;17.016;2022-12-10T08:47:49;24.70;24.20
65072;DHT22;51663;52.310;17.016;2022-12-10T08:50:51;23.30;25.00
65072;DHT22;51663;52.310;17.016;2022-12-10T08:53:54;23.60;25.60
65072;DHT22;51663;52.310;17.016;2022-12-10T08:56:56;24.20;24.70
65072;DHT22;51663;52.310;17.016;2022-12-10T08:59:58;24.20;24.70
65072;DHT22;51663;52.310;17.016;2022-12-10T09:03:00;24.40;24.80
65072;DHT22;51663;52.310;17.016;2022-12-10T09:06:08;24.80;24.10
65072;DHT22;51663;52.310;17.016;2022-12-10T09:09:10;23.00;25.20
65072;DHT22;51663;52.310;17.016;2022-12-10T09:12:12;23.00;25.80
65072;DHT22;51663;52.310;17.016;2022-12-10T09:15:14;24.00;24.90
65072;DHT22;51663;52.310;17.016;2022-12-10T09:18:17;23.50;25.30
65072;DHT22;51663;52.310;17.016;2022-12-10T09:21:19;23.10;25.40
65072;DHT22;51663;52.310;17.016;2022-12-10T09:24:21;22.90;25.60
65072;DHT22;51663;52.310;17.016;2022-12-10T09:27:23;23.80;25.20
65072;DHT22;51663;52.310;17.016;2022-12-10T09:30:25;24.10;24.80
65072;DHT22;51663;52.310;17.016;2022-12-10T09:33:28;24.40;24.60
65072;DHT22;51663;52.310;17.016;2022-12-10T09:36:30;24.40;24.30
65072;DHT22;51663;52.310;17.016;2022-12-10T09:39:34;23.50;25.30
65072;DHT22;51663;52.310;17.016;2022-12-10T09:42:53;24.10;25.10
65072;DHT22;51663;52.310;17.016;2022-12-10T09:50:18;22.60;26.20
65072;DHT22;51663;52.310;17.016;2022-12-10T09:52:58;23.10;25.90
65072;DHT22;51663;52.310;17.016;2022-12-10T09:56:02;23.20;25.60
65072;DHT22;51663;52.310;17.016;2022-12-10T09:59:17;23.70;25.20
65072;DHT22;51663;52.310;17.016;2022-12-10T10:02:25;23.40;25.30
65072;DHT22;51663;52.310;17.016;2022-12-10T10:05:35;22.90;26.10
65072;DHT22;51663;52.310;17.016;2022-12-10T10:08:45;23.20;25.50
65072;DHT22;51663;52.310;17.016;2022-12-10T10:11:48;23.30;25.70
65072;DHT22;51663;52.310;17.016;2022-12-10T10:14:50;23.60;25.40
65072;DHT22;51663;52.310;17.016;2022-12-10T10:17:54;24.50;24.50
65072;DHT22;51663;52.310;17.016;2022-12-10T10:20:59;24.50;24.20
65072;DHT22;51663;52.310;17.016;2022-12-10T10:24:14;24.10;25.20
65072;DHT22;51663;52.310;17.016;2022-12-10T10:27:21;22.80;25.10
65072;DHT22;51663;52.310;17.016;2022-12-10T10:30:23;23.00;25.90
65072;DHT22;51663;52.310;17.016;2022-12-10T10:33:26;23.10;25.10
65072;DHT22;51663;52.310;17.016;2022-12-10T10:36:34;22.00;26.60
65072;DHT22;51663;52.310;17.016;2022-12-10T10:39:36;21.90;26.50
65072;DHT22;51663;52.310;17.016;2022-12-10T10:42:43;22.20;26.40
65072;DHT22;51663;52.310;17.016;2022-12-10T10:46:05;22.00;26.40
65072;DHT22;51663;52.310;17.016;2022-12-10T10:49:29;21.30;27.70
65072;DHT22;51663;52.310;17.016;2022-12-10T10:52:38;20.90;28.30
65072;DHT22;51663;52.310;17.016;2022-12-10T10:55:41;21.40;27.60
65072;DHT22;51663;52.310;17.016;2022-12-10T10:59:04;22.40;26.50
65072;DHT22;51663;52.310;17.016;2022-12-10T11:02:16;22.30;26.20
65072;DHT22;51663;52.310;17.016;2022-12-10T11:05:29;22.90;25.90
65072;DHT22;51663;52.310;17.016;2022-12-10T11:08:38;23.50;25.60
65072;DHT22;51663;52.310;17.016;2022-12-10T11:11:50;23.30;25.30
65072;DHT22;51663;52.310;17.016;2022-12-10T11:14:52;23.60;25.20
65072;DHT22;51663;52.310;17.016;2022-12-10T11:17:55;22.40;25.90
65072;DHT22;51663;52.310;17.016;2022-12-10T11:21:00;21.50;26.70
65072;DHT22;51663;52.310;17.016;2022-12-10T11:24:10;22.00;27.30
65072;DHT22;51663;52.310;17.016;2022-12-10T11:30:45;22.90;25.20
65072;DHT22;51663;52.310;17.016;2022-12-10T11:37:29;21.90;26.30
65072;DHT22;51663;52.310;17.016;2022-12-10T11:47:38;22.10;26.40
65072;DHT22;51663;52.310;17.016;2022-12-10T11:50:53;22.10;26.90
65072;DHT22;51663;52.310;17.016;2022-12-10T11:54:14;22.10;26.60
65072;DHT22;51663;52.310;17.016;2022-12-10T12:01:08;22.30;26.40
65072;DHT22;51663;52.310;17.016;2022-12-10T12:08:00;21.50;27.40
65072;DHT22;51663;52.310;17.016;2022-12-10T12:14:56;21.50;27.80
65072;DHT22;51663;52.310;17.016;2022-12-10T12:21:14;22.30;27.50
65072;DHT22;51663;52.310;17.016;2022-12-10T12:24:35;22.80;26.20
65072;DHT22;51663;52.310;17.016;2022-12-10T12:27:44;23.30;25.20
65072;DHT22;51663;52.310;17.016;2022-12-10T12:30:53;24.00;24.90
65072;DHT22;51663;52.310;17.016;2022-12-10T12:37:54;24.10;24.30
65072;DHT22;51663;52.310;17.016;2022-12-10T12:41:16;23.80;24.80
65072;DHT22;51663;52.310;17.016;2022-12-10T12:44:36;24.40;24.10
65072;DHT22;51663;52.310;17.016;2022-12-10T12:47:53;23.00;25.20
65072;DHT22;51663;52.310;17.016;2022-12-10T12:51:10;23.80;24.60
65072;DHT22;51663;52.310;17.016;2022-12-10T12:54:15;22.30;26.10
65072;DHT22;51663;52.310;17.016;2022-12-10T12:57:42;21.70;26.70
65072;DHT22;51663;52.310;17.016;2022-12-10T13:00:49;21.90;26.50
65072;DHT22;51663;52.310;17.016;2022-12-10T13:03:56;23.00;25.60
65072;DHT22;51663;52.310;17.016;2022-12-10T13:14:04;24.40;24.20
65072;DHT22;51663;52.310;17.016;2022-12-10T13:17:27;24.80;24.00
65072;DHT22;51663;52.310;17.016;2022-12-10T13:23:54;23.30;24.70
65072;DHT22;51663;52.310;17.016;2022-12-10T13:33:18;23.00;25.30
65072;DHT22;51663;52.310;17.016;2022-12-10T13:36:36;22.60;26.00
65072;DHT22;51663;52.310;17.016;2022-12-10T13:43:38;22.50;25.80
65072;DHT22;51663;52.310;17.016;2022-12-10T13:50:19;23.10;25.00
65072;DHT22;51663;52.310;17.016;2022-12-10T14:00:22;22.80;25.70
65072;DHT22;51663;52.310;17.016;2022-12-10T14:06:47;21.30;26.70
65072;DHT22;51663;52.310;17.016;2022-12-10T14:09:53;21.30;27.00
65072;DHT22;51663;52.310;17.016;2022-12-10T14:13:00;21.00;27.30
65072;DHT22;51663;52.310;17.016;2022-12-10T14:16:11;20.80;27.40
65072;DHT22;51663;52.310;17.016;2022-12-10T14:19:17;20.90;27.10
65072;DHT22;51663;52.310;17.016;2022-12-10T14:22:38;21.30;26.80
65072;DHT22;51663;52.310;17.016;2022-12-10T14:25:51;20.90;27.20
65072;DHT22;51663;52.310;17.016;2022-12-10T14:28:58;19.40;28.90
65072;DHT22;51663;52.310;17.016;2022-12-10T14:32:01;19.90;29.00
65072;DHT22;51663;52.310;17.016;2022-12-10T14:35:07;20.00;28.50
65072;DHT22;51663;52.310;17.016;2022-12-10T14:38:23;20.50;28.00
65072;DHT22;51663;52.310;17.016;2022-12-10T14:41:30;19.80;28.90
65072;DHT22;51663;52.310;17.016;2022-12-10T14:44:41;19.30;28.90
65072;DHT22;51663;52.310;17.016;2022-12-10T14:47:47;19.20;29.10
65072;DHT22;51663;52.310;17.016;2022-12-10T14:50:50;19.30;29.00
65072;DHT22;51663;52.310;17.016;2022-12-10T14:53:54;19.80;28.30
65072;DHT22;51663;52.310;17.016;2022-12-10T14:56:56;19.90;28.00
65072;DHT22;51663;52.310;17.016;2022-12-10T15:00:15;20.20;27.60
65072;DHT22;51663;52.310;17.016;2022-12-10T15:03:30;20.40;27.50
65072;DHT22;51663;52.310;17.016;2022-12-10T15:06:35;20.70;26.90
65072;DHT22;51663;52.310;17.016;2022-12-10T15:09:38;21.10;26.50
65072;DHT22;51663;52.310;17.016;2022-12-10T15:12:46;21.20;26.40
65072;DHT22;51663;52.310;17.016;2022-12-10T15:15:52;22.30;25.20
65072;DHT22;51663;52.310;17.016;2022-12-10T15:18:55;22.00;25.20
65072;DHT22;51663;52.310;17.016;2022-12-10T15:22:01;21.40;25.90
65072;DHT22;51663;52.310;17.016;2022-12-10T15:25:20;21.40;25.40
65072;DHT22;51663;52.310;17.016;2022-12-10T15:28:28;21.00;26.10
65072;DHT22;51663;52.310;17.016;2022-12-10T15:31:31;21.50;26.00
65072;DHT22;51663;52.310;17.016;2022-12-10T15:34:41;20.40;26.20
65072;DHT22;51663;52.310;17.016;2022-12-10T15:37:46;19.50;27.30
65072;DHT22;51663;52.310;17.016;2022-12-10T15:40:58;19.70;27.20
65072;DHT22;51663;52.310;17.016;2022-12-10T15:44:05;18.80;28.30
65072;DHT22;51663;52.310;17.016;2022-12-10T15:50:22;18.40;29.00
65072;DHT22;51663;52.310;17.016;2022-12-10T15:53:28;18.60;28.70
65072;DHT22;51663;52.310;17.016;2022-12-10T15:56:36;20.50;26.80
65072;DHT22;51663;52.310;17.016;2022-12-10T15:59:38;20.00;26.80
65072;DHT22;51663;52.310;17.016;2022-12-10T16:02:50;19.40;27.60
65072;DHT22;51663;52.310;17.016;2022-12-10T16:05:54;19.20;28.00
65072;DHT22;51663;52.310;17.016;2022-12-10T16:08:57;19.60;27.60
65072;DHT22;51663;52.310;17.016;2022-12-10T16:12:00;19.70;26.90
65072;DHT22;51663;52.310;17.016;2022-12-10T16:15:03;19.70;26.70
65072;DHT22;51663;52.310;17.016;2022-12-10T16:18:09;20.00;26.90
65072;DHT22;51663;52.310;17.016;2022-12-10T16:21:13;20.40;26.30
65072;DHT22;51663;52.310;17.016;2022-12-10T16:24:21;21.10;25.50
65072;DHT22;51663;52.310;17.016;2022-12-10T16:27:24;20.60;25.70
65072;DHT22;51663;52.310;17.016;2022-12-10T16:30:37;20.30;26.00
65072;DHT22;51663;52.310;17.016;2022-12-10T16:33:48;21.60;25.20
65072;DHT22;51663;52.310;17.016;2022-12-10T16:36:53;22.20;24.30
65072;DHT22;51663;52.310;17.016;2022-12-10T16:39:55;22.80;23.80
65072;DHT22;51663;52.310;17.016;2022-12-10T16:43:22;22.80;23.50
65072;DHT22;51663;52.310;17.016;2022-12-10T16:46:24;23.00;23.70
65072;DHT22;51663;52.310;17.016;2022-12-10T16:49:26;23.90;23.10
65072;DHT22;51663;52.310;17.016;2022-12-10T16:52:28;23.40;23.30
65072;DHT22;51663;52.310;17.016;2022-12-10T16:55:31;23.50;23.00
65072;DHT22;51663;52.310;17.016;2022-12-10T16:58:35;22.90;23.40
65072;DHT22;51663;52.310;17.016;2022-12-10T17:01:38;22.30;24.30
65072;DHT22;51663;52.310;17.016;2022-12-10T17:04:41;23.00;24.00
65072;DHT22;51663;52.310;17.016;2022-12-10T17:07:44;22.40;24.00
65072;DHT22;51663;52.310;17.016;2022-12-10T17:10:47;22.60;24.20
65072;DHT22;51663;52.310;17.016;2022-12-10T17:14:17;22.90;24.10
65072;DHT22;51663;52.310;17.016;2022-12-10T17:17:21;22.20;24.40
65072;DHT22;51663;52.310;17.016;2022-12-10T17:20:23;21.40;25.30
65072;DHT22;51663;52.310;17.016;2022-12-10T17:23:27;20.30;26.50
65072;DHT22;51663;52.310;17.016;2022-12-10T17:26:31;20.10;27.60
65072;DHT22;51663;52.310;17.016;2022-12-10T17:29:42;20.30;27.00
65072;DHT22;51663;52.310;17.016;2022-12-10T17:32:47;19.90;26.80
65072;DHT22;51663;52.310;17.016;2022-12-10T17:35:51;19.30;28.10
65072;DHT22;51663;52.310;17.016;2022-12-10T17:38:53;18.50;29.30
65072;DHT22;51663;52.310;17.016;2022-12-10T17:41:56;18.00;29.80
65072;DHT22;51663;52.310;17.016;2022-12-10T17:44:58;18.40;29.30
65072;DHT22;51663;52.310;17.016;2022-12-10T17:48:00;19.20;28.40
65072;DHT22;51663;52.310;17.016;2022-12-10T17:51:02;20.00;27.50
65072;DHT22;51663;52.310;17.016;2022-12-10T17:54:05;20.80;26.00
65072;DHT22;51663;52.310;17.016;2022-12-10T17:57:33;21.00;25.90
65072;DHT22;51663;52.310;17.016;2022-12-10T18:00:36;20.30;26.40
65072;DHT22;51663;52.310;17.016;2022-12-10T18:03:38;20.30;26.40
65072;DHT22;51663;52.310;17.016;2022-12-10T18:06:41;21.10;25.70
65072;DHT22;51663;52.310;17.016;2022-12-10T18:09:43;20.90;26.40
65072;DHT22;51663;52.310;17.016;2022-12-10T18:12:46;20.90;25.90
65072;DHT22;51663;52.310;17.016;2022-12-10T18:15:49;21.10;26.00
65072;DHT22;51663;52.310;17.016;2022-12-10T18:18:51;21.90;24.50
65072;DHT22;51663;52.310;17.016;2022-12-10T18:21:53;21.90;25.00
65072;DHT22;51663;52.310;17.016;2022-12-10T18:24:56;21.80;24.80
65072;DHT22;51663;52.310;17.016;2022-12-10T18:28:06;22.10;24.60
65072;DHT22;51663;52.310;17.016;2022-12-10T18:31:19;21.80;24.40
65072;DHT22;51663;52.310;17.016;2022-12-10T18:34:22;21.10;25.40
65072;DHT22;51663;52.310;17.016;2022-12-10T18:37:24;20.60;25.90
65072;DHT22;51663;52.310;17.016;2022-12-10T18:40:26;21.80;25.30
65072;DHT22;51663;52.310;17.016;2022-12-10T18:43:28;22.60;24.50
65072;DHT22;51663;52.310;17.016;2022-12-10T18:46:31;22.40;23.70
65072;DHT22;51663;52.310;17.016;2022-12-10T18:49:37;21.60;24.90
65072;DHT22;51663;52.310;17.016;2022-12-10T18:52:39;21.10;25.40
65072;DHT22;51663;52.310;17.016;2022-12-10T18:55:42;20.90;25.90
65072;DHT22;51663;52.310;17.016;2022-12-10T18:58:44;20.00;26.40
65072;DHT22;51663;52.310;17.016;2022-12-10T19:01:46;20.20;26.40
65072;DHT22;51663;52.310;17.016;2022-12-10T19:04:48;19.20;27.70
65072;DHT22;51663;52.310;17.016;2022-12-10T19:07:51;20.10;26.90
65072;DHT22;51663;52.310;17.016;2022-12-10T19:10:53;19.50;27.20
65072;DHT22;51663;52.310;17.016;2022-12-10T19:13:55;19.60;27.60
65072;DHT22;51663;52.310;17.016;2022-12-10T19:16:57;19.90;26.80
65072;DHT22;51663;52.310;17.016;2022-12-10T19:20:02;19.60;27.30
65072;DHT22;51663;52.310;17.016;2022-12-10T19:23:06;18.60;28.00
65072;DHT22;51663;52.310;17.016;2022-12-10T19:26:29;17.70;29.60
65072;DHT22;51663;52.310;17.016;2022-12-10T19:29:33;17.70;29.40
65072;DHT22;51663;52.310;17.016;2022-12-10T19:32:35;18.90;28.60
65072;DHT22;51663;52.310;17.016;2022-12-10T19:35:37;18.70;28.60
65072;DHT22;51663;52.310;17.016;2022-12-10T19:38:40;19.30;28.10
65072;DHT22;51663;52.310;17.016;2022-12-10T19:41:42;19.60;27.70
65072;DHT22;51663;52.310;17.016;2022-12-10T19:44:44;20.80;26.10
65072;DHT22;51663;52.310;17.016;2022-12-10T19:47:47;21.30;25.90
65072;DHT22;51663;52.310;17.016;2022-12-10T19:50:49;20.30;26.30
65072;DHT22;51663;52.310;17.016;2022-12-10T19:53:51;19.60;27.00
65072;DHT22;51663;52.310;17.016;2022-12-10T19:56:56;19.60;27.80
65072;DHT22;51663;52.310;17.016;2022-12-10T19:59:58;19.50;27.30
65072;DHT22;51663;52.310;17.016;2022-12-10T20:03:00;19.90;27.40
65072;DHT22;51663;52.310;17.016;2022-12-10T20:06:09;18.90;27.80
65072;DHT22;51663;52.310;17.016;2022-12-10T20:09:17;19.70;27.80
65072;DHT22;51663;52.310;17.016;2022-12-10T20:12:20;20.50;26.50
65072;DHT22;51663;52.310;17.016;2022-12-10T20:15:24;19.40;27.60
65072;DHT22;51663;52.310;17.016;2022-12-10T20:18:26;20.20;26.80
65072;DHT22;51663;52.310;17.016;2022-12-10T20:21:28;19.70;27.20
65072;DHT22;51663;52.310;17.016;2022-12-10T20:24:30;19.80;27.40
65072;DHT22;51663;52.310;17.016;2022-12-10T20:27:33;19.00;28.30
65072;DHT22;51663;52.310;17.016;2022-12-10T20:30:35;19.10;28.30
65072;DHT22;51663;52.310;17.016;2022-12-10T20:33:37;19.30;28.20
65072;DHT22;51663;52.310;17.016;2022-12-10T20:36:48;20.10;27.00
65072;DHT22;51663;52.310;17.016;2022-12-10T20:39:50;19.20;27.70